createdAt,value
2023-09-15T00:00:35.177Z,10.03
2023-09-15T00:01:35.166Z,10.03
2023-09-15T00:02:35.193Z,10.03
2023-09-15T00:03:35.183Z,10.03
2023-09-15T00:04:35.969Z,10.03
2023-09-15T00:05:35.188Z,10.00
2023-09-15T00:06:35.108Z,10.00
2023-09-15T00:07:35.085Z,10.01
2023-09-15T00:08:35.093Z,10.03
2023-09-15T00:09:35.088Z,10.00
2023-09-15T00:10:35.055Z,10.00
2023-09-15T00:11:35.063Z,9.99
2023-09-15T00:12:35.072Z,10.06
2023-09-15T00:13:35.130Z,10.04
2023-09-15T00:14:35.017Z,10.01
2023-09-15T00:15:35.053Z,10.03
2023-09-15T00:16:35.096Z,10.01
2023-09-15T00:17:35.001Z,10.01
2023-09-15T00:18:35.023Z,9.99
2023-09-15T00:19:34.964Z,9.99
2023-09-15T00:20:34.948Z,9.96
2023-09-15T00:21:34.975Z,9.96
2023-09-15T00:22:34.935Z,9.96
2023-09-15T00:23:34.914Z,9.94
2023-09-15T00:24:34.964Z,9.94
2023-09-15T00:25:34.918Z,9.91
2023-09-15T00:26:34.895Z,9.89
2023-09-15T00:27:34.898Z,9.91
2023-09-15T00:28:34.872Z,9.88
2023-09-15T00:29:34.885Z,9.89
2023-09-15T00:30:34.882Z,9.85
2023-09-15T00:31:34.852Z,9.85
2023-09-15T00:32:34.869Z,9.82
2023-09-15T00:33:34.878Z,9.81
2023-09-15T00:34:34.814Z,9.79
2023-09-15T00:35:34.818Z,9.78
2023-09-15T00:36:34.797Z,9.75
2023-09-15T00:37:34.771Z,9.75
2023-09-15T00:38:34.766Z,9.81
2023-09-15T00:39:34.757Z,9.76
2023-09-15T00:40:34.745Z,9.78
2023-09-15T00:41:34.744Z,9.81
2023-09-15T00:42:34.730Z,9.79
2023-09-15T00:43:34.702Z,9.78
2023-09-15T00:44:34.717Z,9.78
2023-09-15T00:45:34.712Z,9.78
2023-09-15T00:46:34.839Z,9.73
2023-09-15T00:47:34.661Z,9.75
2023-09-15T00:48:34.659Z,9.75
2023-09-15T00:49:34.637Z,9.71
2023-09-15T00:50:34.648Z,9.70
2023-09-15T00:51:34.647Z,9.70
2023-09-15T00:52:34.638Z,9.67
2023-09-15T00:53:34.609Z,9.68
2023-09-15T00:54:34.601Z,9.68
2023-09-15T00:55:34.587Z,9.66
2023-09-15T00:56:34.566Z,9.67
2023-09-15T00:57:34.562Z,9.64
2023-09-15T00:58:34.591Z,9.66
2023-09-15T00:59:34.543Z,9.64
2023-09-15T01:00:34.537Z,9.66
2023-09-15T01:01:34.575Z,9.64
2023-09-15T01:02:34.542Z,9.64
2023-09-15T01:03:34.559Z,9.63
2023-09-15T01:04:34.472Z,9.63
2023-09-15T01:05:34.487Z,9.64
2023-09-15T01:06:34.457Z,9.61
2023-09-15T01:07:34.448Z,9.63
2023-09-15T01:08:34.446Z,9.61
2023-09-15T01:09:34.431Z,9.61
2023-09-15T01:10:34.423Z,9.61
2023-09-15T01:11:34.414Z,9.60
2023-09-15T01:12:34.385Z,9.63
2023-09-15T01:13:34.402Z,9.63
2023-09-15T01:14:34.377Z,9.63
2023-09-15T01:15:34.541Z,9.61
2023-09-15T01:16:34.423Z,9.61
2023-09-15T01:17:34.383Z,9.61
2023-09-15T01:18:34.359Z,9.60
2023-09-15T01:19:34.349Z,9.58
2023-09-15T01:20:34.326Z,9.58
2023-09-15T01:21:34.303Z,9.61
2023-09-15T01:22:34.296Z,9.64
2023-09-15T01:23:34.294Z,9.61
2023-09-15T01:24:34.289Z,9.61
2023-09-15T01:25:34.261Z,9.60
2023-09-15T01:26:34.256Z,9.58
2023-09-15T01:27:34.259Z,9.61
2023-09-15T01:28:34.215Z,9.58
2023-09-15T01:29:34.214Z,9.60
2023-09-15T01:30:34.225Z,9.58
2023-09-15T01:31:34.272Z,9.58
2023-09-15T01:32:34.183Z,9.60
2023-09-15T01:33:34.169Z,9.58
2023-09-15T01:34:34.180Z,9.60
2023-09-15T01:35:34.177Z,9.58
2023-09-15T01:36:34.129Z,9.57
2023-09-15T01:37:34.123Z,9.53
2023-09-15T01:38:34.130Z,9.56
2023-09-15T01:39:34.107Z,9.57
2023-09-15T01:40:34.100Z,9.57
2023-09-15T01:41:34.084Z,9.53
2023-09-15T01:42:34.065Z,9.53
2023-09-15T01:43:34.077Z,9.56
2023-09-15T01:44:34.049Z,9.50
2023-09-15T01:45:34.074Z,9.53
2023-09-15T01:46:34.126Z,9.52
2023-09-15T01:47:34.053Z,9.56
2023-09-15T01:48:34.009Z,9.50
2023-09-15T01:49:33.993Z,9.56
2023-09-15T01:50:33.984Z,9.50
2023-09-15T01:51:33.997Z,9.50
2023-09-15T01:52:33.969Z,9.50
2023-09-15T01:53:33.957Z,9.50
2023-09-15T01:54:33.946Z,9.52
2023-09-15T01:55:33.945Z,9.50
2023-09-15T01:56:33.945Z,9.50
2023-09-15T01:57:33.913Z,9.46
2023-09-15T01:58:33.905Z,9.50
2023-09-15T01:59:33.906Z,9.46
2023-09-15T02:00:33.879Z,9.45
2023-09-15T02:01:33.925Z,9.42
2023-09-15T02:02:33.893Z,9.45
2023-09-15T02:03:33.952Z,9.43
2023-09-15T02:04:33.841Z,9.40
2023-09-15T02:05:33.816Z,9.40
2023-09-15T02:06:33.835Z,9.39
2023-09-15T02:07:33.808Z,9.38
2023-09-15T02:08:33.795Z,9.39
2023-09-15T02:09:33.825Z,9.39
2023-09-15T02:10:33.769Z,9.38
2023-09-15T02:11:33.797Z,9.40
2023-09-15T02:12:33.756Z,9.40
2023-09-15T02:13:33.745Z,9.39
2023-09-15T02:14:33.743Z,9.39
2023-09-15T02:15:33.746Z,9.40
2023-09-15T02:16:33.768Z,9.38
2023-09-15T02:17:33.718Z,9.34
2023-09-15T02:18:33.706Z,9.35
2023-09-15T02:19:33.693Z,9.34
2023-09-15T02:20:33.690Z,9.34
2023-09-15T02:21:33.693Z,9.31
2023-09-15T02:22:33.654Z,9.32
2023-09-15T02:23:33.636Z,9.32
2023-09-15T02:24:33.637Z,9.35
2023-09-15T02:25:33.623Z,9.34
2023-09-15T02:26:33.629Z,9.34
2023-09-15T02:27:33.613Z,9.35
2023-09-15T02:28:33.592Z,9.34
2023-09-15T02:29:33.571Z,9.31
2023-09-15T02:30:33.614Z,9.31
2023-09-15T02:31:33.619Z,9.32
2023-09-15T02:32:33.549Z,9.31
2023-09-15T02:33:33.546Z,9.32
2023-09-15T02:34:33.519Z,9.34
2023-09-15T02:35:33.513Z,9.31
2023-09-15T02:36:33.508Z,9.27
2023-09-15T02:37:33.500Z,9.27
2023-09-15T02:38:33.480Z,9.28
2023-09-15T02:39:33.473Z,9.25
2023-09-15T02:40:33.458Z,9.27
2023-09-15T02:41:35.022Z,9.23
2023-09-15T02:42:33.435Z,9.24
2023-09-15T02:43:33.434Z,9.24
2023-09-15T02:44:33.401Z,9.24
2023-09-15T02:45:33.416Z,9.25
2023-09-15T02:46:33.537Z,9.21
2023-09-15T02:47:33.399Z,9.23
2023-09-15T02:48:33.363Z,9.25
2023-09-15T02:49:33.418Z,9.25
2023-09-15T02:50:33.354Z,9.21
2023-09-15T02:51:33.342Z,9.24
2023-09-15T02:52:33.344Z,9.21
2023-09-15T02:53:33.305Z,9.21
2023-09-15T02:54:33.311Z,9.23
2023-09-15T02:55:33.294Z,9.23
2023-09-15T02:56:33.280Z,9.21
2023-09-15T02:57:33.294Z,9.23
2023-09-15T02:58:33.282Z,9.24
2023-09-15T02:59:33.264Z,9.23
2023-09-15T03:00:33.275Z,9.21
2023-09-15T03:01:33.313Z,9.21
2023-09-15T03:02:33.370Z,9.20
2023-09-15T03:03:33.316Z,9.20
2023-09-15T03:04:33.221Z,9.18
2023-09-15T03:05:33.270Z,9.18
2023-09-15T03:06:33.176Z,9.13
2023-09-15T03:07:33.179Z,9.18
2023-09-15T03:08:33.245Z,9.18
2023-09-15T03:09:33.156Z,9.18
2023-09-15T03:10:33.136Z,9.21
2023-09-15T03:11:33.252Z,9.20
2023-09-15T03:12:33.115Z,9.18
2023-09-15T03:13:33.101Z,9.16
2023-09-15T03:14:33.171Z,9.20
2023-09-15T03:15:33.097Z,9.15
2023-09-15T03:16:33.281Z,9.18
2023-09-15T03:17:33.220Z,9.20
2023-09-15T03:18:33.039Z,9.20
2023-09-15T03:19:33.084Z,9.16
2023-09-15T03:20:33.036Z,9.18
2023-09-15T03:21:33.104Z,9.18
2023-09-15T03:22:33.048Z,9.16
2023-09-15T03:23:33.183Z,9.20
2023-09-15T03:24:33.097Z,9.18
2023-09-15T03:25:33.098Z,9.20
2023-09-15T03:26:32.965Z,9.16
2023-09-15T03:27:32.953Z,9.16
2023-09-15T03:28:32.933Z,9.13
2023-09-15T03:29:32.951Z,9.10
2023-09-15T03:30:32.949Z,9.16
2023-09-15T03:31:32.978Z,9.12
2023-09-15T03:32:32.926Z,9.09
2023-09-15T03:33:32.901Z,9.12
2023-09-15T03:34:32.912Z,9.12
2023-09-15T03:35:32.883Z,9.10
2023-09-15T03:36:32.851Z,9.10
2023-09-15T03:37:32.860Z,9.12
2023-09-15T03:38:32.837Z,9.13
2023-09-15T03:39:33.001Z,9.12
2023-09-15T03:40:32.828Z,9.15
2023-09-15T03:41:32.809Z,9.15
2023-09-15T03:42:32.853Z,9.16
2023-09-15T03:43:32.791Z,9.18
2023-09-15T03:44:32.770Z,9.18
2023-09-15T03:45:32.851Z,9.13
2023-09-15T03:46:32.875Z,9.16
2023-09-15T03:47:32.762Z,9.09
2023-09-15T03:48:32.791Z,9.10
2023-09-15T03:49:32.727Z,9.06
2023-09-15T03:50:32.706Z,9.02
2023-09-15T03:51:32.739Z,9.05
2023-09-15T03:52:32.686Z,9.05
2023-09-15T03:53:32.670Z,9.02
2023-09-15T03:54:32.659Z,9.01
2023-09-15T03:55:32.654Z,8.99
2023-09-15T03:56:32.666Z,9.01
2023-09-15T03:57:32.636Z,9.02
2023-09-15T03:58:32.622Z,9.04
2023-09-15T03:59:32.616Z,9.05
2023-09-15T04:00:32.598Z,9.05
2023-09-15T04:01:32.692Z,9.06
2023-09-15T04:02:32.612Z,9.05
2023-09-15T04:03:32.622Z,9.02
2023-09-15T04:04:32.687Z,9.02
2023-09-15T04:05:32.556Z,9.02
2023-09-15T04:06:32.562Z,9.01
2023-09-15T04:07:32.607Z,9.04
2023-09-15T04:08:32.531Z,9.04
2023-09-15T04:09:32.540Z,9.05
2023-09-15T04:10:32.685Z,9.05
2023-09-15T04:11:32.506Z,9.06
2023-09-15T04:12:32.554Z,9.06
2023-09-15T04:13:32.448Z,9.09
2023-09-15T04:14:32.481Z,9.09
2023-09-15T04:15:32.498Z,9.06
2023-09-15T04:16:32.516Z,9.06
2023-09-15T04:17:32.475Z,9.05
2023-09-15T04:18:32.395Z,9.09
2023-09-15T04:19:32.495Z,9.06
2023-09-15T04:20:43.624Z,9.09
2023-09-15T04:21:32.411Z,9.05
2023-09-15T04:22:32.376Z,9.06
2023-09-15T04:23:32.367Z,9.05
2023-09-15T04:24:32.343Z,9.06
2023-09-15T04:25:32.350Z,9.02
2023-09-15T04:26:32.342Z,8.99
2023-09-15T04:27:32.318Z,8.99
2023-09-15T04:28:32.310Z,8.97
2023-09-15T04:29:32.286Z,8.96
2023-09-15T04:30:32.279Z,8.96
2023-09-15T04:31:32.442Z,8.93
2023-09-15T04:32:32.310Z,8.99
2023-09-15T04:33:32.272Z,8.96
2023-09-15T04:34:32.178Z,8.97
2023-09-15T04:35:32.194Z,8.96
2023-09-15T04:36:32.148Z,8.96
2023-09-15T04:37:32.185Z,8.93
2023-09-15T04:38:32.138Z,8.91
2023-09-15T04:39:32.129Z,8.90
2023-09-15T04:40:32.121Z,8.86
2023-09-15T04:41:32.112Z,8.84
2023-09-15T04:42:32.095Z,8.86
2023-09-15T04:43:32.094Z,8.86
2023-09-15T04:44:32.062Z,8.81
2023-09-15T04:45:32.066Z,8.84
2023-09-15T04:46:32.184Z,8.86
2023-09-15T04:47:32.075Z,8.88
2023-09-15T04:48:32.068Z,8.88
2023-09-15T04:49:32.168Z,8.87
2023-09-15T04:50:32.035Z,8.88
2023-09-15T04:51:32.015Z,8.88
2023-09-15T04:52:32.001Z,8.84
2023-09-15T04:53:31.973Z,8.84
2023-09-15T04:54:31.973Z,8.83
2023-09-15T04:55:31.974Z,8.83
2023-09-15T04:56:31.977Z,8.81
2023-09-15T04:57:31.938Z,8.78
2023-09-15T04:58:31.921Z,8.81
2023-09-15T04:59:31.922Z,8.78
2023-09-15T05:00:31.904Z,8.79
2023-09-15T05:01:31.955Z,8.83
2023-09-15T05:02:31.909Z,8.84
2023-09-15T05:03:31.925Z,8.81
2023-09-15T05:04:31.881Z,8.83
2023-09-15T05:05:31.873Z,8.83
2023-09-15T05:06:31.841Z,8.79
2023-09-15T05:07:31.868Z,8.81
2023-09-15T05:08:31.832Z,8.78
2023-09-15T05:09:31.804Z,8.78
2023-09-15T05:10:31.873Z,8.83
2023-09-15T05:11:31.776Z,8.78
2023-09-15T05:12:31.795Z,8.81
2023-09-15T05:13:31.815Z,8.81
2023-09-15T05:14:33.890Z,8.79
2023-09-15T05:15:31.748Z,8.84
2023-09-15T05:16:31.790Z,8.84
2023-09-15T05:17:31.744Z,8.81
2023-09-15T05:18:31.731Z,8.84
2023-09-15T05:19:31.699Z,8.91
2023-09-15T05:20:31.742Z,8.91
2023-09-15T05:21:31.676Z,8.93
2023-09-15T05:22:31.683Z,8.86
2023-09-15T05:23:31.767Z,8.87
2023-09-15T05:24:31.657Z,8.87
2023-09-15T05:25:31.688Z,8.84
2023-09-15T05:26:31.636Z,8.87
2023-09-15T05:27:31.612Z,8.86
2023-09-15T05:28:31.713Z,8.84
2023-09-15T05:29:31.618Z,8.83
2023-09-15T05:30:31.608Z,8.83
2023-09-15T05:31:31.697Z,8.83
2023-09-15T05:32:31.575Z,8.84
2023-09-15T05:33:31.595Z,8.83
2023-09-15T05:34:31.639Z,8.86
2023-09-15T05:35:31.537Z,8.84
2023-09-15T05:36:31.547Z,8.84
2023-09-15T05:37:31.623Z,8.88
2023-09-15T05:38:31.548Z,8.88
2023-09-15T05:39:31.487Z,8.88
2023-09-15T05:40:31.528Z,8.90
2023-09-15T05:41:31.635Z,8.91
2023-09-15T05:42:31.500Z,8.91
2023-09-15T05:43:31.507Z,8.90
2023-09-15T05:44:31.452Z,8.94
2023-09-15T05:45:31.450Z,8.93
2023-09-15T05:46:31.624Z,8.93
2023-09-15T05:47:31.458Z,8.96
2023-09-15T05:48:31.451Z,8.94
2023-09-15T05:49:31.457Z,8.97
2023-09-15T05:50:31.382Z,8.97
2023-09-15T05:51:31.367Z,8.99
2023-09-15T05:52:31.585Z,9.05
2023-09-15T05:53:31.359Z,9.04
2023-09-15T05:54:31.362Z,9.09
2023-09-15T05:55:31.557Z,9.09
2023-09-15T05:56:31.329Z,9.12
2023-09-15T05:57:31.297Z,9.13
2023-09-15T05:58:31.490Z,9.20
2023-09-15T05:59:31.286Z,9.20
2023-09-15T06:00:31.395Z,9.25
2023-09-15T06:01:31.498Z,9.24
2023-09-15T06:02:31.287Z,9.23
2023-09-15T06:03:31.271Z,9.27
2023-09-15T06:04:31.457Z,9.24
2023-09-15T06:05:31.205Z,9.28
2023-09-15T06:06:31.213Z,9.32
2023-09-15T06:07:31.232Z,9.38
2023-09-15T06:08:31.200Z,9.38
2023-09-15T06:09:31.189Z,9.42
2023-09-15T06:10:31.223Z,9.42
2023-09-15T06:11:31.157Z,9.42
2023-09-15T06:12:31.156Z,9.49
2023-09-15T06:13:31.211Z,9.52
2023-09-15T06:14:31.124Z,9.53
2023-09-15T06:15:31.133Z,9.57
2023-09-15T06:16:31.183Z,9.63
2023-09-15T06:17:31.138Z,9.61
2023-09-15T06:18:31.097Z,9.64
2023-09-15T06:19:31.087Z,9.73
2023-09-15T06:20:31.091Z,9.76
2023-09-15T06:21:31.113Z,9.81
2023-09-15T06:22:31.076Z,9.83
2023-09-15T06:23:31.051Z,9.88
2023-09-15T06:24:31.057Z,9.96
2023-09-15T06:25:31.036Z,10.06
2023-09-15T06:26:30.990Z,10.12
2023-09-15T06:27:31.028Z,10.19
2023-09-15T06:28:31.059Z,10.25
2023-09-15T06:29:31.064Z,10.30
2023-09-15T06:30:31.143Z,10.32
2023-09-15T06:31:31.022Z,10.26
2023-09-15T06:32:31.001Z,10.34
2023-09-15T06:33:30.938Z,10.43
2023-09-15T06:34:30.948Z,10.43
2023-09-15T06:35:30.906Z,10.47
2023-09-15T06:36:30.976Z,10.53
2023-09-15T06:37:30.935Z,10.55
2023-09-15T06:38:30.859Z,10.58
2023-09-15T06:39:30.913Z,10.62
2023-09-15T06:40:30.903Z,10.70
2023-09-15T06:41:30.847Z,10.66
2023-09-15T06:42:30.875Z,10.70
2023-09-15T06:43:30.890Z,10.71
2023-09-15T06:44:30.811Z,10.73
2023-09-15T06:45:30.985Z,10.76
2023-09-15T06:46:30.901Z,10.77
2023-09-15T06:47:30.837Z,10.80
2023-09-15T06:48:30.823Z,10.84
2023-09-15T06:49:30.802Z,10.89
2023-09-15T06:50:30.774Z,10.94
2023-09-15T06:51:30.787Z,10.95
2023-09-15T06:52:30.807Z,10.96
2023-09-15T06:53:30.717Z,11.02
2023-09-15T06:54:30.810Z,11.09
2023-09-15T06:55:30.738Z,11.21
2023-09-15T06:56:30.673Z,11.24
2023-09-15T06:57:30.752Z,11.34
2023-09-15T06:58:30.722Z,11.36
2023-09-15T06:59:30.646Z,11.43
2023-09-15T07:00:30.718Z,11.46
2023-09-15T07:01:30.668Z,11.52
2023-09-15T07:02:30.665Z,11.53
2023-09-15T07:03:30.658Z,11.57
2023-09-15T07:04:30.678Z,11.61
2023-09-15T07:05:30.587Z,11.64
2023-09-15T07:06:30.632Z,11.65
2023-09-15T07:07:30.593Z,11.65
2023-09-15T07:08:30.560Z,11.71
2023-09-15T07:09:30.581Z,11.71
2023-09-15T07:10:30.580Z,11.74
2023-09-15T07:11:30.536Z,11.77
2023-09-15T07:12:30.572Z,11.82
2023-09-15T07:13:30.528Z,11.82
2023-09-15T07:14:30.481Z,11.86
2023-09-15T07:15:30.527Z,11.80
2023-09-15T07:16:30.557Z,11.86
2023-09-15T07:17:30.562Z,11.93
2023-09-15T07:18:30.537Z,11.94
2023-09-15T07:19:30.486Z,12.01
2023-09-15T07:20:30.422Z,12.05
2023-09-15T07:21:30.451Z,12.09
2023-09-15T07:22:30.404Z,12.06
2023-09-15T07:23:30.421Z,12.13
2023-09-15T07:24:30.434Z,12.23
2023-09-15T07:25:30.444Z,12.24
2023-09-15T07:26:30.356Z,12.26
2023-09-15T07:27:30.428Z,12.27
2023-09-15T07:28:30.411Z,12.37
2023-09-15T07:29:30.344Z,12.41
2023-09-15T07:30:30.400Z,12.48
2023-09-15T07:31:30.396Z,12.49
2023-09-15T07:32:30.385Z,12.59
2023-09-15T07:33:30.337Z,12.59
2023-09-15T07:34:30.324Z,12.66
2023-09-15T07:35:30.260Z,12.66
2023-09-15T07:36:30.255Z,12.69
2023-09-15T07:37:30.305Z,12.74
2023-09-15T07:38:31.439Z,12.79
2023-09-15T07:39:30.264Z,12.82
2023-09-15T07:40:30.242Z,12.88
2023-09-15T07:41:30.200Z,12.95
2023-09-15T07:42:30.198Z,12.97
2023-09-15T07:43:30.230Z,13.00
2023-09-15T07:44:30.222Z,13.02
2023-09-15T07:45:30.205Z,13.09
2023-09-15T07:46:30.275Z,13.12
2023-09-15T07:47:30.170Z,13.17
2023-09-15T07:48:30.118Z,13.25
2023-09-15T07:49:30.180Z,13.25
2023-09-15T07:50:30.127Z,13.22
2023-09-15T07:51:30.124Z,13.32
2023-09-15T07:52:30.171Z,13.40
2023-09-15T07:53:30.097Z,13.41
2023-09-15T07:54:30.082Z,13.52
2023-09-15T07:55:30.101Z,13.51
2023-09-15T07:56:30.044Z,13.61
2023-09-15T07:57:30.060Z,13.61
2023-09-15T07:58:30.148Z,13.65
2023-09-15T07:59:30.021Z,13.61
2023-09-15T08:00:30.017Z,13.65
2023-09-15T08:01:30.649Z,13.73
2023-09-15T08:02:30.090Z,13.67
2023-09-15T08:03:29.997Z,13.70
2023-09-15T08:04:30.136Z,13.73
2023-09-15T08:05:29.948Z,13.74
2023-09-15T08:06:29.954Z,13.80
2023-09-15T08:07:30.007Z,13.80
2023-09-15T08:08:29.936Z,13.84
2023-09-15T08:09:29.931Z,13.84
2023-09-15T08:10:29.959Z,13.89
2023-09-15T08:11:29.880Z,13.89
2023-09-15T08:12:29.866Z,13.96
2023-09-15T08:13:29.932Z,13.99
2023-09-15T08:14:29.842Z,14.01
2023-09-15T08:15:29.856Z,14.04
2023-09-15T08:16:29.918Z,14.09
2023-09-15T08:17:34.180Z,14.06
2023-09-15T08:18:29.875Z,14.14
2023-09-15T08:19:29.903Z,14.20
2023-09-15T08:20:29.803Z,14.28
2023-09-15T08:21:29.774Z,14.28
2023-09-15T08:22:29.849Z,14.35
2023-09-15T08:23:29.742Z,14.39
2023-09-15T08:24:29.752Z,14.38
2023-09-15T08:25:29.843Z,14.47
2023-09-15T08:26:38.955Z,14.49
2023-09-15T08:27:29.818Z,14.53
2023-09-15T08:28:29.787Z,14.53
2023-09-15T08:29:29.683Z,14.54
2023-09-15T08:30:29.703Z,14.60
2023-09-15T08:31:29.809Z,14.56
2023-09-15T08:32:29.673Z,14.67
2023-09-15T08:33:29.628Z,14.67
2023-09-15T08:34:29.711Z,14.75
2023-09-15T08:35:29.628Z,14.86
2023-09-15T08:36:29.613Z,14.90
2023-09-15T08:37:29.694Z,14.99
2023-09-15T08:38:29.584Z,15.02
2023-09-15T08:39:29.572Z,15.08
2023-09-15T08:40:29.653Z,15.13
2023-09-15T08:41:29.558Z,15.13
2023-09-15T08:42:29.541Z,15.20
2023-09-15T08:43:31.052Z,15.26
2023-09-15T08:44:29.522Z,15.35
2023-09-15T08:45:29.534Z,15.41
2023-09-15T08:46:29.591Z,15.46
2023-09-15T08:47:29.550Z,15.51
2023-09-15T08:48:29.462Z,15.56
2023-09-15T08:49:29.538Z,15.63
2023-09-15T08:50:29.460Z,15.67
2023-09-15T08:51:29.442Z,15.75
2023-09-15T08:52:29.505Z,15.78
2023-09-15T08:53:29.410Z,15.78
2023-09-15T08:54:29.419Z,15.81
2023-09-15T08:55:29.466Z,15.88
2023-09-15T08:56:29.380Z,15.96
2023-09-15T08:57:29.475Z,15.96
2023-09-15T08:58:29.456Z,16.06
2023-09-15T08:59:29.341Z,16.12
2023-09-15T09:00:29.361Z,16.09
2023-09-15T09:01:29.480Z,16.14
2023-09-15T09:02:29.459Z,16.20
2023-09-15T09:03:29.418Z,16.18
2023-09-15T09:04:29.373Z,16.22
2023-09-15T09:05:29.288Z,16.27
2023-09-15T09:06:29.311Z,16.30
2023-09-15T09:07:29.361Z,16.30
2023-09-15T09:08:29.271Z,16.35
2023-09-15T09:09:29.238Z,16.40
2023-09-15T09:10:29.330Z,16.44
2023-09-15T09:11:29.230Z,16.49
2023-09-15T09:12:29.217Z,16.44
2023-09-15T09:13:41.577Z,16.49
2023-09-15T09:14:29.196Z,16.53
2023-09-15T09:15:29.168Z,16.56
2023-09-15T09:16:29.319Z,16.52
2023-09-15T09:17:29.323Z,16.53
2023-09-15T09:18:29.153Z,16.59
2023-09-15T09:19:29.217Z,16.63
2023-09-15T09:20:29.119Z,16.70
2023-09-15T09:21:29.145Z,16.71
2023-09-15T09:22:29.368Z,16.73
2023-09-15T09:23:29.097Z,16.75
2023-09-15T09:24:29.089Z,16.83
2023-09-15T09:25:29.161Z,16.90
2023-09-15T09:26:29.069Z,16.95
2023-09-15T09:27:29.087Z,16.99
2023-09-15T09:28:29.133Z,17.07
2023-09-15T09:29:29.053Z,17.08
2023-09-15T09:30:29.031Z,17.15
2023-09-15T09:31:29.178Z,17.17
2023-09-15T09:32:29.053Z,17.25
2023-09-15T09:33:29.012Z,17.28
2023-09-15T09:34:46.471Z,17.28
2023-09-15T09:35:29.021Z,17.28
2023-09-15T09:36:28.958Z,17.33
2023-09-15T09:37:29.017Z,17.32
2023-09-15T09:38:28.941Z,17.38
2023-09-15T09:39:28.995Z,17.41
2023-09-15T09:40:28.963Z,17.40
2023-09-15T09:41:30.260Z,17.43
2023-09-15T09:42:28.946Z,17.50
2023-09-15T09:43:28.933Z,17.53
2023-09-15T09:44:28.890Z,17.57
2023-09-15T09:45:28.921Z,17.64
2023-09-15T09:46:28.941Z,17.63
2023-09-15T09:47:28.908Z,17.71
2023-09-15T09:48:29.083Z,17.67
2023-09-15T09:49:28.862Z,17.67
2023-09-15T09:50:28.926Z,17.69
2023-09-15T09:51:28.840Z,17.73
2023-09-15T09:52:28.836Z,17.70
2023-09-15T09:53:28.795Z,17.74
2023-09-15T09:54:28.903Z,17.74
2023-09-15T09:55:28.854Z,17.82
2023-09-15T09:56:28.752Z,17.94
2023-09-15T09:57:28.771Z,17.99
2023-09-15T09:58:28.775Z,18.07
2023-09-15T09:59:28.726Z,18.06
2023-09-15T10:00:28.762Z,18.09
2023-09-15T10:01:28.832Z,18.17
2023-09-15T10:02:28.739Z,18.19
2023-09-15T10:03:28.757Z,18.25
2023-09-15T10:04:28.698Z,18.28
2023-09-15T10:05:28.671Z,18.25
2023-09-15T10:06:28.697Z,18.28
2023-09-15T10:07:28.684Z,18.34
2023-09-15T10:08:28.621Z,18.34
2023-09-15T10:09:28.642Z,18.34
2023-09-15T10:10:28.632Z,18.36
2023-09-15T10:11:28.610Z,18.36
2023-09-15T10:12:28.619Z,18.37
2023-09-15T10:13:28.605Z,18.40
2023-09-15T10:14:28.554Z,18.44
2023-09-15T10:15:28.668Z,18.46
2023-09-15T10:16:28.636Z,18.50
2023-09-15T10:17:28.562Z,18.52
2023-09-15T10:18:28.539Z,18.55
2023-09-15T10:19:28.574Z,18.58
2023-09-15T10:20:28.484Z,18.57
2023-09-15T10:21:28.509Z,18.58
2023-09-15T10:22:28.526Z,18.62
2023-09-15T10:23:28.462Z,18.67
2023-09-15T10:24:28.502Z,18.65
2023-09-15T10:25:28.465Z,18.64
2023-09-15T10:26:28.429Z,18.68
2023-09-15T10:27:28.418Z,18.70
2023-09-15T10:28:42.096Z,18.73
2023-09-15T10:29:28.403Z,18.79
2023-09-15T10:30:28.449Z,18.80
2023-09-15T10:31:28.508Z,18.82
2023-09-15T10:32:28.376Z,18.86
2023-09-15T10:33:28.389Z,18.84
2023-09-15T10:34:28.387Z,18.91
2023-09-15T10:35:28.331Z,18.92
2023-09-15T10:36:28.359Z,18.95
2023-09-15T10:37:28.381Z,19.05
2023-09-15T10:38:28.293Z,19.08
2023-09-15T10:39:28.328Z,19.06
2023-09-15T10:40:28.318Z,19.08
2023-09-15T10:41:28.278Z,19.10
2023-09-15T10:42:28.296Z,19.11
2023-09-15T10:43:28.356Z,19.14
2023-09-15T10:44:28.250Z,19.18
2023-09-15T10:45:28.235Z,19.21
2023-09-15T10:46:28.303Z,19.21
2023-09-15T10:47:28.298Z,19.29
2023-09-15T10:48:28.235Z,19.33
2023-09-15T10:49:28.223Z,19.39
2023-09-15T10:50:28.170Z,19.47
2023-09-15T10:51:28.214Z,19.50
2023-09-15T10:52:28.202Z,19.54
2023-09-15T10:53:28.144Z,19.51
2023-09-15T10:54:28.152Z,19.58
2023-09-15T10:55:28.171Z,19.60
2023-09-15T10:56:28.108Z,19.58
2023-09-15T10:57:28.150Z,19.61
2023-09-15T10:58:28.127Z,19.53
2023-09-15T10:59:28.108Z,19.53
2023-09-15T11:00:28.149Z,19.54
2023-09-15T11:01:28.110Z,19.55
2023-09-15T11:02:28.119Z,19.57
2023-09-15T11:03:28.084Z,19.57
2023-09-15T11:04:28.046Z,19.63
2023-09-15T11:05:28.027Z,19.72
2023-09-15T11:06:28.080Z,19.79
2023-09-15T11:07:27.999Z,19.80
2023-09-15T11:08:28.075Z,19.84
2023-09-15T11:09:28.027Z,19.86
2023-09-15T11:10:27.954Z,19.90
2023-09-15T11:11:27.956Z,19.91
2023-09-15T11:12:27.963Z,19.87
2023-09-15T11:13:27.933Z,19.90
2023-09-15T11:14:27.947Z,19.88
2023-09-15T11:15:27.956Z,19.91
2023-09-15T11:16:31.175Z,19.93
2023-09-15T11:17:28.002Z,20.02
2023-09-15T11:18:27.883Z,20.06
2023-09-15T11:19:27.878Z,20.06
2023-09-15T11:20:27.876Z,20.08
2023-09-15T11:21:27.868Z,20.09
2023-09-15T11:22:27.841Z,20.10
2023-09-15T11:23:27.872Z,20.15
2023-09-15T11:24:27.923Z,20.18
2023-09-15T11:25:27.806Z,20.21
2023-09-15T11:26:28.772Z,20.15
2023-09-15T11:27:28.665Z,20.18
2023-09-15T11:28:27.771Z,20.16
2023-09-15T11:29:27.796Z,20.23
2023-09-15T11:30:27.820Z,20.20
2023-09-15T11:31:27.768Z,20.23
2023-09-15T11:32:27.754Z,20.25
2023-09-15T11:33:27.795Z,20.30
2023-09-15T11:34:27.943Z,20.25
2023-09-15T11:35:27.702Z,20.23
2023-09-15T11:36:27.732Z,20.23
2023-09-15T11:37:27.684Z,20.24
2023-09-15T11:38:27.683Z,20.21
2023-09-15T11:39:27.696Z,20.15
2023-09-15T11:40:27.662Z,20.08
2023-09-15T11:41:27.631Z,20.06
2023-09-15T11:42:27.651Z,20.00
2023-09-15T11:43:27.638Z,20.03
2023-09-15T11:44:27.648Z,20.02
2023-09-15T11:45:27.709Z,20.05
2023-09-15T11:46:27.637Z,20.09
2023-09-15T11:47:27.676Z,20.12
2023-09-15T11:48:27.600Z,20.18
2023-09-15T11:49:27.553Z,20.23
2023-09-15T11:50:27.539Z,20.24
2023-09-15T11:51:27.567Z,20.24
2023-09-15T11:52:27.519Z,20.28
2023-09-15T11:53:27.503Z,20.31
2023-09-15T11:54:27.595Z,20.33
2023-09-15T11:55:27.494Z,20.35
2023-09-15T11:56:27.460Z,20.41
2023-09-15T11:57:27.512Z,20.46
2023-09-15T11:58:27.458Z,20.51
2023-09-15T11:59:27.445Z,20.51
2023-09-15T12:00:27.508Z,20.53
2023-09-15T12:01:27.472Z,20.51
2023-09-15T12:02:27.434Z,20.49
2023-09-15T12:03:27.502Z,20.47
2023-09-15T12:04:27.487Z,20.42
2023-09-15T12:05:28.243Z,20.42
2023-09-15T12:06:27.430Z,20.43
2023-09-15T12:07:27.384Z,20.34
2023-09-15T12:08:27.344Z,20.30
2023-09-15T12:09:27.364Z,20.31
2023-09-15T12:10:27.357Z,20.33
2023-09-15T12:11:27.322Z,20.27
2023-09-15T12:12:27.336Z,20.33
2023-09-15T12:13:27.281Z,20.35
2023-09-15T12:14:29.374Z,20.41
2023-09-15T12:15:27.354Z,20.42
2023-09-15T12:16:27.302Z,20.43
2023-09-15T12:17:27.300Z,20.49
2023-09-15T12:18:27.314Z,20.47
2023-09-15T12:19:29.635Z,20.46
2023-09-15T12:20:27.280Z,20.47
2023-09-15T12:21:27.284Z,20.53
2023-09-15T12:22:27.199Z,20.49
2023-09-15T12:23:27.374Z,20.46
2023-09-15T12:24:27.658Z,20.41
2023-09-15T12:25:27.160Z,20.46
2023-09-15T12:26:27.142Z,20.43
2023-09-15T12:27:27.202Z,20.35
2023-09-15T12:28:27.125Z,20.33
2023-09-15T12:29:27.111Z,20.39
2023-09-15T12:30:27.202Z,20.42
2023-09-15T12:31:27.114Z,20.41
2023-09-15T12:32:27.160Z,20.43
2023-09-15T12:33:27.193Z,20.49
2023-09-15T12:34:27.132Z,20.49
2023-09-15T12:35:27.067Z,20.47
2023-09-15T12:36:27.088Z,20.49
2023-09-15T12:37:27.070Z,20.49
2023-09-15T12:38:27.012Z,20.46
2023-09-15T12:39:27.203Z,20.46
2023-09-15T12:40:26.986Z,20.46
2023-09-15T12:41:26.989Z,20.43
2023-09-15T12:42:27.032Z,20.34
2023-09-15T12:43:26.991Z,20.34
2023-09-15T12:44:26.970Z,20.35
2023-09-15T12:45:26.996Z,20.33
2023-09-15T12:46:27.027Z,20.39
2023-09-15T12:47:27.033Z,20.46
2023-09-15T12:48:27.014Z,20.43
2023-09-15T12:49:26.925Z,20.41
2023-09-15T12:50:26.915Z,20.39
2023-09-15T12:51:26.895Z,20.41
2023-09-15T12:52:26.885Z,20.39
2023-09-15T12:53:26.891Z,20.41
2023-09-15T12:54:26.905Z,20.43
2023-09-15T12:55:26.863Z,20.43
2023-09-15T12:56:27.678Z,20.47
2023-09-15T12:57:26.896Z,20.53
2023-09-15T12:58:26.834Z,20.53
2023-09-15T12:59:26.819Z,20.59
2023-09-15T13:00:26.807Z,20.54
2023-09-15T13:01:26.800Z,20.56
2023-09-15T13:02:26.824Z,20.56
2023-09-15T13:03:27.095Z,20.56
2023-09-15T13:04:26.950Z,20.53